createdAt,value
2019-03-06T00:00:00.041Z,83.26
2019-03-06T00:00:59.940Z,83.78
2019-03-06T00:02:00.053Z,83.89
2019-03-06T00:02:59.915Z,83.26
2019-03-06T00:04:00.001Z,83.58
2019-03-06T00:04:59.899Z,83.37
2019-03-06T00:05:59.972Z,83.78
2019-03-06T00:06:59.875Z,83.99
2019-03-06T00:07:59.994Z,84.09
2019-03-06T00:08:59.890Z,83.58
2019-03-06T00:09:59.928Z,83.99
2019-03-06T00:10:59.835Z,84.41
2019-03-06T00:11:59.915Z,83.68
2019-03-06T00:12:59.813Z,83.89
2019-03-06T00:13:59.859Z,83.89
2019-03-06T00:14:59.874Z,83.68
2019-03-06T00:15:59.840Z,83.89
2019-03-06T00:16:59.770Z,84.72
2019-03-06T00:17:59.857Z,84.72
2019-03-06T00:18:59.744Z,84.72
2019-03-06T00:19:59.790Z,85.55
2019-03-06T00:20:59.783Z,85.55
2019-03-06T00:21:59.780Z,84.51
2019-03-06T00:22:59.697Z,84.34
2019-03-06T00:23:59.809Z,83.78
2019-03-06T00:24:59.771Z,84.72
2019-03-06T00:25:59.713Z,83.99
2019-03-06T00:26:59.657Z,84.82
2019-03-06T00:27:59.716Z,84.09
2019-03-06T00:28:59.641Z,84.51
2019-03-06T00:29:59.783Z,84.09
2019-03-06T00:30:59.606Z,83.99
2019-03-06T00:31:59.685Z,84.09
2019-03-06T00:32:59.590Z,83.99
2019-03-06T00:33:59.657Z,84.88
2019-03-06T00:34:59.599Z,84.30
2019-03-06T00:35:59.675Z,84.68
2019-03-06T00:36:59.549Z,84.41
2019-03-06T00:37:59.599Z,83.95
2019-03-06T00:38:59.519Z,84.37
2019-03-06T00:39:59.623Z,84.37
2019-03-06T00:40:59.563Z,83.75
2019-03-06T00:41:59.611Z,84.47
2019-03-06T00:42:59.478Z,84.51
2019-03-06T00:43:59.518Z,84.88
2019-03-06T00:44:59.487Z,85.61
2019-03-06T00:45:59.541Z,85.44
2019-03-06T00:46:59.436Z,85.50
2019-03-06T00:47:59.569Z,85.44
2019-03-06T00:48:59.416Z,85.24
2019-03-06T00:49:59.496Z,85.09
2019-03-06T00:50:59.399Z,85.86
2019-03-06T00:51:59.479Z,85.86
2019-03-06T00:52:59.367Z,86.07
2019-03-06T00:53:59.391Z,85.44
2019-03-06T00:54:59.381Z,85.55
2019-03-06T00:55:59.401Z,86.58
2019-03-06T00:56:59.325Z,85.96
2019-03-06T00:59:00.426Z,86.58
2019-03-06T00:59:59.345Z,86.44
2019-03-06T01:00:59.333Z,86.37
2019-03-06T01:01:59.374Z,86.17
2019-03-06T01:02:59.259Z,85.71
2019-03-06T01:03:59.352Z,86.13
2019-03-06T01:04:59.240Z,85.92
2019-03-06T01:05:59.266Z,85.50
2019-03-06T01:06:59.237Z,85.92
2019-03-06T01:07:59.283Z,86.13
2019-03-06T01:08:59.193Z,85.50
2019-03-06T01:09:59.298Z,85.82
2019-03-06T01:10:59.211Z,85.71
2019-03-06T01:11:59.203Z,85.40
2019-03-06T01:12:59.153Z,85.61
2019-03-06T01:13:59.237Z,85.05
2019-03-06T01:14:59.125Z,84.64
2019-03-06T01:15:59.275Z,85.71
2019-03-06T01:16:59.107Z,85.36
2019-03-06T01:17:59.152Z,85.05
2019-03-06T01:18:59.087Z,85.36
2019-03-06T01:19:59.170Z,85.05
2019-03-06T01:20:59.064Z,84.64
2019-03-06T01:21:59.206Z,85.36
2019-03-06T01:22:59.040Z,85.16
2019-03-06T01:23:59.083Z,84.64
2019-03-06T01:24:59.023Z,85.47
2019-03-06T01:26:00.160Z,85.47
2019-03-06T01:26:59.022Z,85.68
2019-03-06T01:27:59.011Z,84.95
2019-03-06T01:28:58.977Z,85.16
2019-03-06T01:29:59.021Z,85.02
2019-03-06T01:30:58.950Z,85.22
2019-03-06T01:31:59.066Z,85.26
2019-03-06T01:32:58.926Z,85.57
2019-03-06T01:33:58.953Z,85.78
2019-03-06T01:34:58.917Z,85.47
2019-03-06T01:35:58.964Z,85.99
2019-03-06T01:36:58.947Z,85.68
2019-03-06T01:37:58.978Z,85.53
2019-03-06T01:38:58.865Z,86.36
2019-03-06T01:39:58.894Z,87.08
2019-03-06T01:40:58.852Z,86.77
2019-03-06T01:41:58.933Z,87.18
2019-03-06T01:42:58.844Z,85.74
2019-03-06T01:43:58.917Z,86.25
2019-03-06T01:44:58.798Z,85.63
2019-03-06T01:45:58.835Z,85.53
2019-03-06T01:46:58.797Z,86.46
2019-03-06T01:47:58.843Z,85.74
2019-03-06T01:48:58.755Z,86.46
2019-03-06T01:49:58.860Z,85.42
2019-03-06T01:50:58.744Z,86.05
2019-03-06T01:51:58.802Z,85.53
2019-03-06T01:52:58.735Z,86.36
2019-03-06T01:53:58.788Z,86.88
2019-03-06T01:54:58.683Z,86.88
2019-03-06T01:55:58.794Z,86.77
2019-03-06T01:56:58.661Z,86.88
2019-03-06T01:57:58.741Z,87.29
2019-03-06T01:58:58.642Z,87.39
2019-03-06T01:59:58.721Z,87.60
2019-03-06T02:00:58.624Z,88.12
2019-03-06T02:01:58.739Z,87.60
2019-03-06T02:02:58.631Z,87.39
2019-03-06T02:03:58.649Z,87.39
2019-03-06T02:04:58.582Z,87.49
2019-03-06T02:05:58.665Z,87.81
2019-03-06T02:06:58.558Z,88.01
2019-03-06T02:07:58.610Z,88.74
2019-03-06T02:08:58.531Z,88.64
2019-03-06T02:09:58.593Z,88.22
2019-03-06T02:10:58.552Z,88.12
2019-03-06T02:11:58.600Z,89.46
2019-03-06T02:12:58.536Z,89.15
2019-03-06T02:13:58.519Z,88.98
2019-03-06T02:14:58.468Z,89.46
2019-03-06T02:16:59.574Z,89.04
2019-03-06T02:17:58.574Z,89.36
2019-03-06T02:18:58.436Z,89.46
2019-03-06T02:19:58.450Z,89.56
2019-03-06T02:20:58.399Z,89.56
2019-03-06T02:21:58.463Z,89.87
2019-03-06T02:22:58.402Z,89.77
2019-03-06T02:23:58.481Z,90.19
2019-03-06T02:24:58.353Z,90.08
2019-03-06T02:25:58.396Z,90.60
2019-03-06T02:26:58.331Z,90.70
2019-03-06T02:27:58.481Z,90.50
2019-03-06T02:28:58.318Z,91.01
2019-03-06T02:29:58.451Z,91.53
2019-03-06T02:30:58.299Z,91.32
2019-03-06T02:31:58.330Z,91.94
2019-03-06T02:32:58.277Z,92.05
2019-03-06T02:33:58.342Z,91.63
2019-03-06T02:34:58.292Z,92.57
2019-03-06T02:35:58.357Z,92.15
2019-03-06T02:36:58.228Z,92.77
2019-03-06T02:37:58.270Z,92.46
2019-03-06T02:38:58.204Z,92.77
2019-03-06T02:39:58.310Z,92.77
2019-03-06T02:40:58.186Z,92.81
2019-03-06T02:41:58.333Z,92.97
2019-03-06T02:42:58.164Z,93.33
2019-03-06T02:43:58.309Z,93.54
2019-03-06T02:44:58.198Z,93.64
2019-03-06T02:45:58.221Z,93.74
2019-03-06T02:46:58.143Z,93.54
2019-03-06T02:47:58.150Z,93.54
2019-03-06T02:48:58.127Z,93.80
2019-03-06T02:49:58.150Z,93.12
2019-03-06T02:50:58.133Z,93.43
2019-03-06T02:51:58.169Z,93.64
2019-03-06T02:52:58.056Z,93.85
2019-03-06T02:53:58.073Z,93.74
2019-03-06T02:54:58.028Z,93.95
2019-03-06T02:55:58.131Z,93.95
2019-03-06T02:56:58.010Z,94.57
2019-03-06T02:57:58.104Z,94.37
2019-03-06T02:58:57.992Z,94.57
2019-03-06T02:59:58.046Z,94.57
2019-03-06T03:00:57.961Z,94.47
2019-03-06T03:01:58.038Z,94.47
2019-03-06T03:02:57.983Z,94.78
2019-03-06T03:03:58.037Z,94.89
2019-03-06T03:04:57.954Z,94.84
2019-03-06T03:05:57.952Z,94.98
2019-03-06T03:06:57.897Z,95.09
2019-03-06T03:07:58.010Z,94.73
2019-03-06T03:08:57.883Z,95.19
2019-03-06T03:09:58.010Z,95.29
2019-03-06T03:10:57.902Z,94.94
2019-03-06T03:11:57.910Z,95.19
2019-03-06T03:12:57.835Z,95.40
2019-03-06T03:13:57.908Z,95.19
2019-03-06T03:14:57.808Z,94.84
2019-03-06T03:15:57.859Z,95.09
2019-03-06T03:16:57.783Z,94.78
2019-03-06T03:17:57.827Z,94.84
2019-03-06T03:18:57.772Z,94.89
2019-03-06T03:19:57.885Z,95.50
2019-03-06T03:20:57.856Z,95.19
2019-03-06T03:21:57.760Z,95.36
2019-03-06T03:22:57.726Z,95.40
2019-03-06T03:23:57.773Z,95.40
2019-03-06T03:24:57.695Z,95.04
2019-03-06T03:25:57.830Z,94.98
2019-03-06T03:26:57.680Z,95.29
2019-03-06T03:27:57.702Z,95.50
2019-03-06T03:28:57.656Z,95.71
2019-03-06T03:29:57.725Z,95.46
2019-03-06T03:30:57.683Z,95.04
2019-03-06T03:31:57.737Z,95.50
2019-03-06T03:32:57.614Z,95.36
2019-03-06T03:33:57.638Z,95.40
2019-03-06T03:34:57.600Z,95.46
2019-03-06T03:35:57.688Z,96.12
2019-03-06T03:36:57.565Z,96.08
2019-03-06T03:38:58.681Z,95.67
2019-03-06T03:39:57.573Z,96.23
2019-03-06T03:40:57.568Z,96.08
2019-03-06T03:41:57.606Z,96.08
2019-03-06T03:42:57.502Z,96.08
2019-03-06T03:43:57.635Z,96.19
2019-03-06T03:44:57.475Z,96.19
2019-03-06T03:45:57.540Z,95.98
2019-03-06T03:46:57.462Z,95.87
2019-03-06T03:47:57.533Z,95.87
2019-03-06T03:48:57.431Z,95.98
2019-03-06T03:49:57.536Z,95.98
2019-03-06T03:50:57.440Z,95.98
2019-03-06T03:51:57.485Z,95.87
2019-03-06T03:52:57.387Z,96.08
2019-03-06T03:53:57.471Z,95.87
2019-03-06T03:54:57.367Z,96.08
2019-03-06T03:55:57.480Z,95.77
2019-03-06T03:56:57.373Z,95.67
2019-03-06T03:57:57.390Z,96.08
2019-03-06T03:58:57.321Z,95.98
2019-03-06T03:59:57.454Z,96.08
2019-03-06T04:00:57.301Z,96.08
2019-03-06T04:01:57.342Z,96.08
2019-03-06T04:02:57.278Z,96.08
2019-03-06T04:03:57.336Z,96.19
2019-03-06T04:04:57.251Z,96.08
2019-03-06T04:06:58.399Z,96.29
2019-03-06T04:08:58.365Z,95.25
2019-03-06T04:09:57.277Z,95.42
2019-03-06T04:10:57.193Z,95.25
2019-03-06T04:11:57.317Z,95.25
2019-03-06T04:12:57.176Z,95.31
2019-03-06T04:13:57.196Z,95.25
2019-03-06T04:14:57.147Z,95.25
2019-03-06T04:15:57.213Z,95.21
2019-03-06T04:16:57.157Z,95.10
2019-03-06T04:17:57.275Z,94.73
2019-03-06T04:18:57.103Z,94.94
2019-03-06T04:19:57.139Z,95.25
2019-03-06T04:20:57.079Z,94.73
2019-03-06T04:21:57.154Z,95.25
2019-03-06T04:22:57.080Z,95.67
2019-03-06T04:23:57.168Z,96.08
2019-03-06T04:24:57.034Z,96.08
2019-03-06T04:25:57.088Z,96.19
2019-03-06T04:27:58.281Z,96.39
2019-03-06T04:28:57.144Z,96.39
2019-03-06T04:29:57.232Z,96.08
2019-03-06T04:30:57.107Z,96.08
2019-03-06T04:31:57.140Z,96.03
2019-03-06T04:32:57.101Z,95.98
2019-03-06T04:33:56.942Z,96.03
2019-03-06T04:34:57.043Z,95.62
2019-03-06T04:35:56.918Z,96.08
2019-03-06T04:36:56.965Z,96.14
2019-03-06T04:37:56.927Z,96.03
2019-03-06T04:38:56.959Z,95.87
2019-03-06T04:39:56.866Z,96.24
2019-03-06T04:40:56.978Z,95.83
2019-03-06T04:41:56.845Z,96.34
2019-03-06T04:42:56.926Z,96.03
2019-03-06T04:43:56.831Z,96.14
2019-03-06T04:44:56.913Z,96.03
2019-03-06T04:45:56.802Z,96.24
2019-03-06T04:46:56.923Z,95.73
2019-03-06T04:47:56.812Z,96.14
2019-03-06T04:48:56.831Z,96.34
2019-03-06T04:49:56.764Z,96.14
2019-03-06T04:50:56.845Z,96.03
2019-03-06T04:51:56.738Z,95.73
2019-03-06T04:52:56.884Z,95.89
2019-03-06T04:53:56.725Z,95.78
2019-03-06T04:54:56.766Z,95.99
2019-03-06T04:55:56.690Z,96.09
2019-03-06T04:56:56.777Z,95.37
2019-03-06T04:57:56.687Z,95.17
2019-03-06T04:58:56.728Z,94.81
2019-03-06T04:59:56.663Z,95.37
2019-03-06T05:00:56.728Z,95.27
2019-03-06T05:01:56.630Z,95.37
2019-03-06T05:03:57.769Z,95.06
2019-03-06T05:04:56.633Z,94.85
2019-03-06T05:05:56.586Z,94.96
2019-03-06T05:06:56.656Z,94.75
2019-03-06T05:07:56.561Z,94.96
2019-03-06T05:08:56.685Z,94.85
2019-03-06T05:09:56.541Z,94.96
2019-03-06T05:10:56.574Z,94.65
2019-03-06T05:11:56.517Z,94.85
2019-03-06T05:12:56.585Z,94.75
2019-03-06T05:13:56.528Z,94.44
2019-03-06T05:14:56.598Z,94.85
2019-03-06T05:15:56.476Z,94.40
2019-03-06T05:16:56.527Z,94.92
2019-03-06T05:17:56.449Z,94.92
2019-03-06T05:18:56.547Z,94.29
2019-03-06T05:19:56.432Z,94.40
2019-03-06T05:20:56.536Z,94.29
2019-03-06T05:21:56.416Z,94.40
2019-03-06T05:22:56.457Z,93.57
2019-03-06T05:23:56.411Z,93.84
2019-03-06T05:24:56.463Z,93.78
2019-03-06T05:25:56.366Z,94.46
2019-03-06T05:26:56.493Z,94.15
2019-03-06T05:27:56.346Z,93.84
2019-03-06T05:28:56.422Z,93.84
2019-03-06T05:29:56.349Z,93.94
2019-03-06T05:30:56.398Z,93.73
2019-03-06T05:31:56.296Z,93.94
2019-03-06T05:32:56.411Z,93.73
2019-03-06T05:33:56.278Z,93.73
2019-03-06T05:34:56.353Z,93.53
2019-03-06T05:35:56.256Z,93.73
2019-03-06T05:36:56.338Z,93.73
2019-03-06T05:37:56.254Z,93.94
2019-03-06T05:38:56.251Z,93.53
2019-03-06T05:39:56.264Z,93.43
2019-03-06T05:40:56.264Z,93.63
2019-03-06T05:41:56.197Z,93.59
2019-03-06T05:42:56.301Z,93.59
2019-03-06T05:43:56.214Z,93.73
2019-03-06T05:44:56.217Z,93.63
2019-03-06T05:45:56.147Z,93.73
2019-03-06T05:46:56.200Z,94.04
2019-03-06T05:47:56.135Z,93.53
2019-03-06T05:48:56.227Z,93.73
2019-03-06T05:49:56.162Z,93.43
2019-03-06T05:50:56.126Z,94.04
2019-03-06T05:51:56.084Z,93.84
2019-03-06T05:52:56.158Z,93.73
2019-03-06T05:53:56.062Z,94.46
2019-03-06T05:54:56.191Z,93.84
2019-03-06T05:55:56.037Z,93.94
2019-03-06T05:56:56.068Z,93.73
2019-03-06T05:57:56.017Z,93.84
2019-03-06T05:58:56.089Z,93.73
2019-03-06T05:59:56.015Z,93.63
2019-03-06T06:00:56.124Z,93.94
2019-03-06T06:01:55.976Z,93.84
2019-03-06T06:02:56.006Z,94.09
2019-03-06T06:03:55.949Z,93.73
2019-03-06T06:04:56.021Z,93.84
2019-03-06T06:05:55.951Z,93.84
2019-03-06T06:06:56.048Z,93.84
2019-03-06T06:07:55.912Z,94.19
2019-03-06T06:08:55.956Z,94.04
2019-03-06T06:09:55.882Z,93.94
2019-03-06T06:10:56.004Z,93.88
2019-03-06T06:11:55.867Z,93.57
2019-03-06T06:12:55.991Z,93.88
2019-03-06T06:13:55.846Z,93.57
2019-03-06T06:14:55.892Z,94.09
2019-03-06T06:15:55.861Z,93.63
2019-03-06T06:16:55.907Z,93.98
2019-03-06T06:17:55.801Z,93.73
2019-03-06T06:18:55.812Z,93.78
2019-03-06T06:19:55.781Z,93.88
2019-03-06T06:20:55.857Z,93.73
2019-03-06T06:21:55.750Z,93.98
2019-03-06T06:22:55.836Z,93.98
2019-03-06T06:23:55.735Z,93.57
2019-03-06T06:24:55.751Z,93.47
2019-03-06T06:25:55.714Z,93.68
2019-03-06T06:26:55.796Z,93.68
2019-03-06T06:27:55.689Z,93.68
2019-03-06T06:28:55.780Z,93.57
2019-03-06T06:29:55.667Z,93.98
2019-03-06T06:30:55.688Z,93.98
2019-03-06T06:31:55.673Z,93.68
2019-03-06T06:32:55.706Z,94.04
2019-03-06T06:33:55.626Z,93.57
2019-03-06T06:34:55.721Z,93.57
2019-03-06T06:35:55.621Z,93.73
2019-03-06T06:36:55.656Z,93.63
2019-03-06T06:37:55.579Z,93.53
2019-03-06T06:38:55.649Z,93.26
2019-03-06T06:39:55.561Z,93.68
2019-03-06T06:40:55.656Z,93.53
2019-03-06T06:41:55.562Z,93.53
2019-03-06T06:42:55.570Z,93.98
2019-03-06T06:43:55.512Z,93.63
2019-03-06T06:44:55.594Z,93.22
2019-03-06T06:45:55.494Z,93.53
2019-03-06T06:46:55.621Z,93.53
2019-03-06T06:47:55.475Z,93.53
2019-03-06T06:48:55.510Z,93.53
2019-03-06T06:49:55.451Z,92.80
2019-03-06T06:51:01.621Z,93.38
2019-03-06T06:51:56.472Z,92.86
2019-03-06T06:52:55.540Z,93.38
2019-03-06T06:53:55.408Z,92.25
2019-03-06T06:54:55.452Z,92.72
2019-03-06T06:55:55.395Z,92.51
2019-03-06T06:56:55.515Z,92.21
2019-03-06T06:57:55.362Z,92.31
2019-03-06T06:58:55.474Z,92.21
2019-03-06T06:59:55.338Z,92.21
2019-03-06T07:00:55.386Z,91.69
2019-03-06T07:01:55.316Z,91.58
2019-03-06T07:02:55.440Z,91.69
2019-03-06T07:03:55.295Z,91.69
2019-03-06T07:04:55.314Z,91.58
2019-03-06T07:05:55.276Z,91.58
2019-03-06T07:06:55.330Z,91.89
2019-03-06T07:07:55.291Z,91.48
2019-03-06T07:08:55.344Z,91.79
2019-03-06T07:09:55.233Z,91.48
2019-03-06T07:10:55.249Z,91.89
2019-03-06T07:11:55.208Z,91.13
2019-03-06T07:12:55.296Z,91.17
2019-03-06T07:13:55.189Z,90.72
2019-03-06T07:14:55.320Z,90.76
2019-03-06T07:15:55.209Z,90.51
2019-03-06T07:16:55.192Z,89.79
2019-03-06T07:17:55.179Z,90.16
2019-03-06T07:18:55.200Z,90.51
2019-03-06T07:19:55.123Z,90.31
2019-03-06T07:20:55.217Z,90.26
2019-03-06T07:21:55.108Z,89.69
2019-03-06T07:22:55.175Z,89.28
2019-03-06T07:23:55.081Z,89.54
2019-03-06T07:24:55.144Z,89.23
2019-03-06T07:25:55.082Z,88.92
2019-03-06T07:26:55.157Z,88.92
2019-03-06T07:27:55.045Z,89.03
2019-03-06T07:28:55.071Z,88.51
2019-03-06T07:29:55.014Z,88.92
2019-03-06T07:30:55.132Z,88.82
2019-03-06T07:31:54.993Z,88.92
2019-03-06T07:32:55.128Z,88.89
2019-03-06T07:33:54.972Z,87.44
2019-03-06T07:34:55.004Z,88.06
2019-03-06T07:35:54.959Z,88.06
2019-03-06T07:36:55.024Z,88.06
2019-03-06T07:37:54.947Z,87.54
2019-03-06T07:38:55.071Z,86.82
2019-03-06T07:39:54.930Z,86.72
2019-03-06T07:40:54.945Z,87.09
2019-03-06T07:41:54.906Z,86.47
2019-03-06T07:42:54.961Z,86.47
2019-03-06T07:43:54.861Z,87.09
2019-03-06T07:44:54.868Z,86.79
2019-03-06T07:45:54.833Z,85.92
2019-03-06T07:46:54.919Z,86.43
2019-03-06T07:47:54.814Z,85.51
2019-03-06T07:48:54.900Z,85.41
2019-03-06T07:49:54.826Z,85.10
2019-03-06T07:50:54.814Z,84.99
2019-03-06T07:51:54.772Z,85.06
2019-03-06T07:52:54.823Z,84.23
2019-03-06T07:53:54.757Z,83.97
2019-03-06T07:54:54.873Z,83.31
2019-03-06T07:55:54.735Z,83.20
2019-03-06T07:56:54.751Z,83.00
2019-03-06T07:57:54.702Z,84.23
2019-03-06T07:58:54.765Z,83.11
2019-03-06T07:59:54.703Z,82.48
2019-03-06T08:00:54.775Z,83.83
2019-03-06T08:01:54.657Z,83.11
2019-03-06T08:02:54.692Z,83.17
2019-03-06T08:03:54.629Z,83.27
2019-03-06T08:04:54.737Z,83.00
2019-03-06T08:05:54.611Z,83.17
2019-03-06T08:06:54.719Z,83.00
2019-03-06T08:07:54.591Z,82.48
2019-03-06T08:08:54.631Z,82.04
2019-03-06T08:09:54.639Z,82.24
2019-03-06T08:10:54.676Z,82.14
2019-03-06T08:11:54.545Z,82.24
2019-03-06T08:12:54.664Z,82.14
2019-03-06T08:13:54.520Z,82.14
2019-03-06T08:14:54.567Z,82.34
2019-03-06T08:15:54.526Z,82.14
2019-03-06T08:16:54.588Z,81.62
2019-03-06T08:17:54.478Z,81.62
2019-03-06T08:18:55.974Z,81.42
2019-03-06T08:19:54.457Z,81.18
2019-03-06T08:20:54.544Z,81.52
2019-03-06T08:21:54.436Z,81.07
2019-03-06T08:22:54.525Z,81.28
2019-03-06T08:23:54.772Z,80.87
2019-03-06T08:24:54.438Z,81.18
2019-03-06T08:25:54.432Z,81.04
2019-03-06T08:26:54.482Z,80.11
2019-03-06T08:27:54.380Z,80.01
2019-03-06T08:28:54.493Z,79.97
2019-03-06T08:29:54.357Z,80.58
2019-03-06T08:30:54.373Z,80.45
2019-03-06T08:31:54.322Z,79.63
2019-03-06T08:32:54.389Z,80.55
2019-03-06T08:33:54.347Z,78.60
2019-03-06T08:34:54.403Z,78.81
2019-03-06T08:35:54.310Z,79.28
2019-03-06T08:36:54.551Z,78.97
2019-03-06T08:37:54.261Z,78.05
2019-03-06T08:38:54.329Z,77.47
2019-03-06T08:39:54.239Z,77.64
2019-03-06T08:41:55.364Z,78.25
2019-03-06T08:42:54.255Z,77.33
2019-03-06T08:43:54.194Z,77.64
2019-03-06T08:44:54.270Z,77.44
2019-03-06T08:45:54.204Z,77.54
2019-03-06T08:46:54.309Z,77.61
2019-03-06T08:47:54.160Z,78.12
2019-03-06T08:48:54.194Z,77.91
2019-03-06T08:49:55.255Z,77.29
2019-03-06T08:50:54.207Z,76.07
2019-03-06T08:51:54.129Z,76.85
2019-03-06T08:52:54.117Z,76.78
2019-03-06T08:53:54.083Z,76.68
2019-03-06T08:54:54.130Z,76.95
2019-03-06T08:55:54.057Z,76.75
2019-03-06T08:56:54.176Z,76.03
2019-03-06T08:57:54.041Z,76.10
2019-03-06T08:58:54.058Z,76.81
2019-03-06T09:00:55.132Z,75.69
2019-03-06T09:02:00.642Z,74.87
2019-03-06T09:02:54.985Z,74.36
2019-03-06T09:03:54.087Z,74.32
2019-03-06T09:04:53.960Z,73.54
2019-03-06T09:05:54.001Z,74.22
2019-03-06T09:06:53.966Z,73.78
2019-03-06T09:07:54.058Z,73.47
2019-03-06T09:08:53.915Z,71.32
2019-03-06T09:09:53.924Z,71.12
2019-03-06T09:11:02.423Z,71.73
2019-03-06T09:11:54.925Z,70.50
2019-03-06T09:12:55.004Z,69.27
2019-03-06T09:13:53.858Z,68.52
2019-03-06T09:14:53.965Z,68.32
2019-03-06T09:15:53.835Z,68.22
2019-03-06T09:16:53.876Z,68.63
2019-03-06T09:17:53.842Z,69.45
2019-03-06T09:18:53.888Z,67.91
2019-03-06T09:19:53.796Z,68.63
2019-03-06T09:20:53.905Z,67.50
2019-03-06T09:21:53.767Z,67.91
2019-03-06T09:22:53.845Z,66.75
2019-03-06T09:23:53.754Z,66.75
2019-03-06T09:24:53.832Z,67.88
2019-03-06T09:25:53.724Z,64.89
2019-03-06T09:26:53.841Z,64.58
2019-03-06T09:27:53.752Z,65.80
2019-03-06T09:29:00.683Z,64.27
2019-03-06T09:29:54.682Z,64.17
2019-03-06T09:30:53.767Z,63.83
2019-03-06T09:31:53.665Z,63.63
2019-03-06T09:32:54.122Z,65.98
2019-03-06T09:33:53.638Z,64.72
2019-03-06T09:35:54.745Z,64.08
2019-03-06T09:36:54.123Z,63.40
2019-03-06T09:37:53.647Z,64.69
2019-03-06T09:39:54.715Z,62.45
2019-03-06T09:41:54.686Z,63.16
2019-03-06T09:42:56.847Z,63.44
2019-03-06T09:43:53.552Z,60.82
2019-03-06T09:44:55.602Z,62.96
2019-03-06T09:45:53.506Z,61.40
2019-03-06T09:47:54.612Z,61.16
2019-03-06T09:48:55.559Z,58.72
2019-03-06T09:49:53.463Z,57.90
2019-03-06T09:51:54.973Z,59.84
2019-03-06T09:52:53.443Z,58.82
2019-03-06T09:53:54.977Z,59.94
2019-03-06T09:54:55.007Z,58.72
2019-03-06T09:56:54.524Z,58.11
2019-03-06T09:58:54.565Z,56.58
2019-03-06T09:59:56.215Z,56.48
2019-03-06T10:00:53.362Z,57.70
2019-03-06T10:01:55.316Z,57.70
2019-03-06T10:02:53.319Z,56.48
2019-03-06T10:03:55.463Z,56.68
2019-03-06T10:04:53.296Z,56.35
2019-03-06T10:05:55.548Z,56.85
2019-03-06T10:06:53.284Z,57.17
2019-03-06T10:07:55.559Z,56.24
2019-03-06T10:08:53.246Z,56.65
2019-03-06T10:09:59.135Z,56.73
2019-03-06T10:10:57.515Z,55.00
2019-03-06T10:12:54.372Z,55.20
2019-03-06T10:14:54.369Z,56.22
2019-03-06T10:16:54.297Z,54.49
2019-03-06T10:18:54.268Z,55.51
2019-03-06T10:19:56.292Z,56.52
2019-03-06T10:20:53.127Z,56.29
2019-03-06T10:22:54.874Z,54.18
2019-03-06T10:23:56.387Z,55.00
2019-03-06T10:24:53.119Z,54.59
2019-03-06T10:26:54.204Z,56.12
2019-03-06T10:28:54.161Z,55.30
2019-03-06T10:29:56.769Z,55.07
2019-03-06T10:31:02.094Z,55.07
2019-03-06T10:31:53.988Z,55.05
2019-03-06T10:32:56.969Z,55.15
2019-03-06T10:34:55.081Z,55.33
2019-03-06T10:35:56.276Z,56.52
2019-03-06T10:36:52.968Z,55.00
2019-03-06T10:37:55.364Z,52.15
2019-03-06T10:38:52.935Z,53.19
2019-03-06T10:39:55.080Z,52.08
2019-03-06T10:40:52.929Z,53.90
2019-03-06T10:42:54.026Z,54.28
2019-03-06T10:43:52.945Z,54.18
2019-03-06T10:44:52.854Z,52.45
2019-03-06T10:45:52.990Z,52.28
2019-03-06T10:46:52.827Z,52.28
2019-03-06T10:47:52.871Z,52.58
2019-03-06T10:48:52.807Z,53.80
2019-03-06T10:49:52.883Z,52.61
2019-03-06T10:50:52.815Z,54.64
2019-03-06T10:51:52.895Z,54.64
2019-03-06T10:52:52.762Z,54.13
2019-03-06T10:53:52.834Z,54.13
2019-03-06T10:54:52.750Z,55.05
2019-03-06T10:55:52.850Z,54.51
2019-03-06T10:56:52.724Z,54.72
2019-03-06T10:57:52.729Z,52.68
2019-03-06T10:58:52.697Z,52.48
2019-03-06T10:59:52.744Z,53.59
2019-03-06T11:00:52.676Z,54.59
2019-03-06T11:01:52.788Z,53.98
2019-03-06T11:02:52.662Z,54.59
2019-03-06T11:03:52.673Z,53.14
2019-03-06T11:04:52.631Z,54.28
2019-03-06T11:05:52.684Z,52.73
2019-03-06T11:06:52.643Z,53.14
2019-03-06T11:07:52.703Z,54.05
2019-03-06T11:08:52.594Z,53.65
2019-03-06T11:09:52.612Z,52.43
2019-03-06T11:10:52.559Z,53.32
2019-03-06T11:11:52.660Z,54.24
2019-03-06T11:12:52.538Z,52.61
2019-03-06T11:13:52.637Z,53.30
2019-03-06T11:14:52.519Z,51.06
2019-03-06T11:15:55.592Z,51.59
2019-03-06T11:16:52.565Z,51.29
2019-03-06T11:17:52.565Z,51.98
2019-03-06T11:18:52.474Z,52.79
2019-03-06T11:19:52.577Z,51.87
2019-03-06T11:20:52.451Z,50.76
2019-03-06T11:21:52.491Z,51.98
2019-03-06T11:22:52.459Z,51.26
2019-03-06T11:23:52.501Z,51.57
2019-03-06T11:24:52.412Z,51.16
2019-03-06T11:25:52.529Z,51.26
2019-03-06T11:26:52.383Z,50.76
2019-03-06T11:27:52.460Z,50.96
2019-03-06T11:28:52.405Z,52.08
2019-03-06T11:29:52.440Z,51.98
2019-03-06T11:30:52.358Z,51.98
2019-03-06T11:32:54.665Z,52.48
2019-03-06T11:33:52.371Z,52.38
2019-03-06T11:34:52.306Z,52.28
2019-03-06T11:35:52.386Z,51.77
2019-03-06T11:36:52.288Z,51.26
2019-03-06T11:37:52.426Z,51.77
2019-03-06T11:38:52.252Z,52.18
2019-03-06T11:39:52.307Z,51.26
2019-03-06T11:40:52.237Z,50.45
2019-03-06T11:41:52.322Z,52.28
2019-03-06T11:42:52.274Z,52.18
2019-03-06T11:43:52.235Z,51.26
2019-03-06T11:44:52.194Z,50.04
2019-03-06T11:45:52.248Z,49.97
2019-03-06T11:46:53.024Z,50.04
2019-03-06T11:47:52.301Z,50.65
2019-03-06T11:48:52.153Z,49.95
2019-03-06T11:49:52.179Z,49.84
2019-03-06T11:50:52.133Z,51.06
2019-03-06T11:51:52.193Z,49.54
2019-03-06T11:52:52.151Z,50.45
2019-03-06T11:53:52.242Z,50.96
2019-03-06T11:54:52.086Z,49.44
2019-03-06T11:55:52.112Z,49.64
2019-03-06T11:56:52.062Z,49.54
2019-03-06T11:57:52.129Z,50.23
2019-03-06T11:58:52.068Z,50.12
2019-03-06T11:59:52.141Z,51.24
2019-03-06T12:00:52.015Z,51.44
2019-03-06T12:01:52.052Z,51.54
2019-03-06T12:02:51.997Z,51.04
2019-03-06T12:03:52.117Z,50.84
2019-03-06T12:04:51.974Z,51.24
2019-03-06T12:05:52.085Z,51.75
2019-03-06T12:06:51.959Z,52.46
2019-03-06T12:07:51.996Z,50.43
2019-03-06T12:08:51.969Z,50.10
2019-03-06T12:09:52.005Z,50.10
2019-03-06T12:10:51.921Z,50.20
2019-03-06T12:11:52.022Z,50.91
2019-03-06T12:12:51.892Z,52.61
2019-03-06T12:13:51.978Z,49.98
2019-03-06T12:14:51.867Z,49.65
2019-03-06T12:15:51.961Z,49.04
2019-03-06T12:16:51.842Z,48.03
2019-03-06T12:17:51.966Z,49.55
2019-03-06T12:18:51.857Z,49.02
2019-03-06T12:19:51.911Z,49.62
2019-03-06T12:20:51.800Z,49.11
2019-03-06T12:21:51.885Z,50.43
2019-03-06T12:22:51.775Z,49.04
2019-03-06T12:23:51.831Z,49.24
2019-03-06T12:24:51.751Z,49.14
2019-03-06T12:25:51.814Z,49.65
2019-03-06T12:26:51.739Z,48.94
2019-03-06T12:27:51.824Z,50.15
2019-03-06T12:28:51.736Z,49.04
2019-03-06T12:29:51.770Z,47.75
2019-03-06T12:30:51.687Z,49.06
2019-03-06T12:31:51.754Z,49.98
2019-03-06T12:32:51.662Z,49.67
2019-03-06T12:33:51.772Z,50.48
2019-03-06T12:34:51.676Z,50.59
2019-03-06T12:35:51.677Z,50.08
2019-03-06T12:36:51.625Z,49.90
2019-03-06T12:37:51.705Z,49.90
2019-03-06T12:38:51.616Z,49.90
2019-03-06T12:39:51.734Z,50.20
2019-03-06T12:40:51.580Z,49.80
2019-03-06T12:41:51.613Z,48.35
2019-03-06T12:42:51.572Z,49.04
2019-03-06T12:43:51.629Z,49.75
2019-03-06T12:44:51.564Z,49.42
2019-03-06T12:45:51.639Z,49.62
2019-03-06T12:46:51.509Z,50.01
2019-03-06T12:47:55.404Z,49.40
2019-03-06T12:48:51.490Z,49.40
2019-03-06T12:49:51.596Z,48.97
2019-03-06T12:50:56.069Z,48.97
2019-03-06T12:51:54.637Z,49.78
2019-03-06T12:52:51.448Z,50.18
2019-03-06T12:53:51.488Z,48.16
2019-03-06T12:54:51.447Z,48.36
2019-03-06T12:55:51.539Z,49.58
2019-03-06T12:56:51.398Z,48.87
2019-03-06T12:57:59.140Z,48.46
2019-03-06T12:58:52.391Z,48.90
2019-03-06T12:59:51.463Z,50.31
2019-03-06T13:00:51.387Z,50.31
2019-03-06T13:01:51.441Z,47.98
2019-03-06T13:02:51.328Z,49.02
2019-03-06T13:03:51.357Z,49.02
2019-03-06T13:04:53.375Z,50.31
2019-03-06T13:05:51.402Z,47.98
2019-03-06T13:06:51.280Z,49.02
2019-03-06T13:07:51.392Z,50.13
2019-03-06T13:08:51.258Z,49.90
2019-03-06T13:09:51.296Z,48.82
2019-03-06T13:10:51.269Z,47.30
2019-03-06T13:11:51.310Z,48.51
2019-03-06T13:12:51.224Z,48.00
2019-03-06T13:13:51.343Z,47.50
2019-03-06T13:14:51.206Z,48.11
2019-03-06T13:15:51.277Z,48.61
2019-03-06T13:16:51.230Z,48.82
2019-03-06T13:17:51.247Z,49.62